Time;durP1;ratioP1;P1;durP2;ratioP2;P2;SDS_P1;SDS_P2;PMS_P1;PMS_P2;Temp;Humidity;BMP_temperature;BMP_pressure;BME280_temperature;BME280_humidity;BME280_pressure;Samples;Min_cycle;Max_cycle;Signal;HPM_P1;HPM_P2
2022/06/25 00:02:14;;;;;;;2.00;1.90;;;;;;;;;;5064415;28;20233;-72
2022/06/25 00:08:07;;;;;;;2.20;2.10;;;;;;;;;;5064489;28;20661;-72
2022/06/25 00:10:54;;;;;;;2.33;2.23;;;;;;;;;;5061312;28;20210;-72
2022/06/25 00:13:40;;;;;;;2.00;2.00;;;;;;;;;;5058647;28;20215;-72
2022/06/25 00:16:27;;;;;;;1.80;1.80;;;;;;;;;;5065123;28;20221;-72
2022/06/25 00:19:14;;;;;;;2.13;2.07;;;;;;;;;;5065840;28;20215;-72
2022/06/25 00:22:01;;;;;;;2.30;2.20;;;;;;;;;;5059431;28;20480;-72
2022/06/25 00:24:50;;;;;;;2.10;2.00;;;;;;;;;;5064535;28;20234;-72
2022/06/25 00:27:37;;;;;;;2.13;2.03;;;;;;;;;;5060828;28;20211;-72
2022/06/25 00:30:24;;;;;;;2.40;2.30;;;;;;;;;;5061398;28;20241;-72
2022/06/25 00:33:11;;;;;;;2.03;1.97;;;;;;;;;;5068367;28;20208;-72
2022/06/25 00:35:58;;;;;;;2.30;2.20;;;;;;;;;;5061796;28;20262;-72
2022/06/25 00:38:45;;;;;;;2.33;2.23;;;;;;;;;;5059929;28;20214;-72
2022/06/25 00:41:33;;;;;;;2.20;2.10;;;;;;;;;;5060576;28;20220;-72
2022/06/25 00:44:21;;;;;;;2.40;2.30;;;;;;;;;;5065374;28;20321;-72
2022/06/25 00:47:09;;;;;;;2.20;2.10;;;;;;;;;;5057029;28;20203;-72
2022/06/25 00:49:56;;;;;;;2.00;1.90;;;;;;;;;;5061178;28;20215;-72
2022/06/25 00:52:45;;;;;;;2.40;2.30;;;;;;;;;;5061328;28;20222;-72
2022/06/25 00:55:32;;;;;;;2.40;2.30;;;;;;;;;;5057450;28;20217;-72
2022/06/25 00:58:23;;;;;;;2.60;2.17;;;;;;;;;;5063393;28;20212;-72
2022/06/25 01:01:10;;;;;;;2.60;2.50;;;;;;;;;;5060520;28;20674;-69
2022/06/25 01:03:57;;;;;;;2.40;2.30;;;;;;;;;;5062138;28;20222;-69
2022/06/25 01:06:44;;;;;;;2.20;2.10;;;;;;;;;;5058230;28;20206;-69
2022/06/25 01:09:31;;;;;;;2.27;2.17;;;;;;;;;;5059615;28;20689;-69
2022/06/25 01:12:18;;;;;;;2.07;1.97;;;;;;;;;;5058975;28;20202;-69
2022/06/25 01:15:13;;;;;;;2.20;2.10;;;;;;;;;;5059005;28;20195;-69
2022/06/25 01:18:00;;;;;;;2.40;2.30;;;;;;;;;;5058599;28;20207;-70
2022/06/25 01:20:47;;;;;;;2.40;2.30;;;;;;;;;;5064139;28;20788;-69
2022/06/25 01:23:36;;;;;;;2.10;2.10;;;;;;;;;;5064446;28;20219;-70
2022/06/25 01:26:23;;;;;;;1.80;1.80;;;;;;;;;;5056555;28;20668;-70
2022/06/25 01:29:10;;;;;;;1.97;1.93;;;;;;;;;;5064840;28;20733;-69
2022/06/25 01:31:57;;;;;;;2.10;2.10;;;;;;;;;;5060896;28;20226;-72
2022/06/25 01:34:44;;;;;;;2.27;2.17;;;;;;;;;;5067017;28;20233;-72
2022/06/25 01:37:32;;;;;;;2.20;2.10;;;;;;;;;;5060089;28;20207;-72
2022/06/25 01:40:20;;;;;;;2.03;2.00;;;;;;;;;;5057649;28;20230;-72
2022/06/25 01:43:07;;;;;;;2.10;2.00;;;;;;;;;;5060055;28;20602;-72
2022/06/25 01:45:54;;;;;;;2.10;2.10;;;;;;;;;;5059958;28;20673;-72
2022/06/25 01:48:41;;;;;;;2.20;2.10;;;;;;;;;;5059318;28;20206;-72
2022/06/25 01:51:29;;;;;;;2.27;2.17;;;;;;;;;;5057754;28;20206;-72
2022/06/25 01:54:16;;;;;;;2.30;2.20;;;;;;;;;;5062568;28;20216;-72
2022/06/25 01:57:05;;;;;;;2.27;2.17;;;;;;;;;;5057401;28;20214;-72
2022/06/25 01:59:52;;;;;;;1.93;1.93;;;;;;;;;;5060942;28;20214;-72
2022/06/25 02:02:39;;;;;;;2.10;2.00;;;;;;;;;;5063346;28;20731;-72
2022/06/25 02:08:35;;;;;;;2.10;2.10;;;;;;;;;;5059007;28;20244;-72
2022/06/25 02:11:23;;;;;;;2.37;2.27;;;;;;;;;;5057053;28;20237;-72
2022/06/25 02:14:11;;;;;;;2.20;2.10;;;;;;;;;;5060978;28;20208;-72
2022/06/25 02:17:00;;;;;;;2.20;2.10;;;;;;;;;;5061788;28;20262;-72
2022/06/25 02:19:47;;;;;;;2.17;2.07;;;;;;;;;;5052825;28;20199;-72
2022/06/25 02:22:35;;;;;;;2.00;1.90;;;;;;;;;;5060290;28;20572;-72
2022/06/25 02:25:23;;;;;;;2.07;1.97;;;;;;;;;;5051956;28;20240;-72
2022/06/25 02:28:10;;;;;;;1.70;1.70;;;;;;;;;;5055699;28;20202;-72
2022/06/25 02:30:59;;;;;;;2.20;2.10;;;;;;;;;;5057902;28;20287;-72
2022/06/25 02:33:46;;;;;;;2.00;1.90;;;;;;;;;;5064421;28;20277;-72
2022/06/25 02:36:33;;;;;;;2.23;2.13;;;;;;;;;;5061112;28;20208;-72
2022/06/25 02:39:20;;;;;;;2.00;1.90;;;;;;;;;;5062284;28;20210;-72
2022/06/25 02:42:07;;;;;;;2.37;2.27;;;;;;;;;;5060028;28;20208;-72
2022/06/25 02:44:54;;;;;;;1.80;1.80;;;;;;;;;;5058581;28;20309;-72
2022/06/25 02:47:45;;;;;;;2.10;2.00;;;;;;;;;;5060171;28;20261;-73
2022/06/25 02:50:35;;;;;;;2.53;2.43;;;;;;;;;;5058045;28;20221;-72
2022/06/25 02:53:22;;;;;;;2.07;1.97;;;;;;;;;;5061545;28;20296;-72
2022/06/25 02:59:15;;;;;;;1.83;1.83;;;;;;;;;;5054511;28;20202;-72
2022/06/25 03:02:03;;;;;;;2.20;2.10;;;;;;;;;;5055126;28;20229;-72
2022/06/25 03:04:52;;;;;;;2.30;2.20;;;;;;;;;;5062510;28;20223;-72
2022/06/25 03:07:40;;;;;;;2.20;2.10;;;;;;;;;;5059269;28;20722;-72
2022/06/25 03:10:27;;;;;;;2.03;1.93;;;;;;;;;;5058951;28;20205;-72
2022/06/25 03:13:14;;;;;;;2.20;2.10;;;;;;;;;;5055511;28;20259;-72
2022/06/25 03:16:01;;;;;;;2.03;1.97;;;;;;;;;;5060689;28;20211;-72
2022/06/25 03:18:50;;;;;;;2.20;2.10;;;;;;;;;;5062011;28;20263;-72
2022/06/25 03:21:39;;;;;;;2.10;2.00;;;;;;;;;;5059838;28;20209;-72
2022/06/25 03:24:26;;;;;;;2.30;2.20;;;;;;;;;;5059262;28;20226;-71
2022/06/25 03:27:13;;;;;;;1.90;1.90;;;;;;;;;;5056554;28;20202;-72
2022/06/25 03:29:59;;;;;;;2.20;2.10;;;;;;;;;;5058023;28;20262;-72
2022/06/25 03:32:46;;;;;;;2.20;2.10;;;;;;;;;;5060833;28;20695;-73
2022/06/25 03:35:33;;;;;;;2.20;2.10;;;;;;;;;;5058612;28;20206;-72
2022/06/25 03:38:22;;;;;;;2.00;2.00;;;;;;;;;;5061583;28;20647;-72
2022/06/25 03:44:13;;;;;;;2.37;2.27;;;;;;;;;;5060993;28;20283;-72
2022/06/25 03:47:00;;;;;;;2.00;1.90;;;;;;;;;;5057266;28;20223;-72
2022/06/25 03:49:47;;;;;;;1.97;1.97;;;;;;;;;;5059453;28;20205;-72
2022/06/25 03:52:35;;;;;;;2.20;2.10;;;;;;;;;;5055514;28;20213;-72
2022/06/25 03:55:23;;;;;;;2.13;2.03;;;;;;;;;;5058625;28;20665;-72
2022/06/25 03:58:10;;;;;;;2.10;2.00;;;;;;;;;;5063647;28;20217;-72
2022/06/25 04:00:58;;;;;;;2.47;2.03;;;;;;;;;;5061413;28;20267;-72
2022/06/25 04:03:45;;;;;;;2.20;2.10;;;;;;;;;;5056809;28;20245;-73
2022/06/25 04:06:32;;;;;;;2.23;2.13;;;;;;;;;;5057948;28;20233;-72
2022/06/25 04:09:19;;;;;;;2.20;2.10;;;;;;;;;;5053828;28;20215;-72
2022/06/25 04:12:08;;;;;;;2.13;2.03;;;;;;;;;;5060507;28;20212;-72
2022/06/25 04:14:55;;;;;;;1.83;1.83;;;;;;;;;;5060713;28;20210;-72
2022/06/25 04:17:44;;;;;;;2.20;2.10;;;;;;;;;;5054228;28;20235;-72
2022/06/25 04:20:32;;;;;;;2.53;2.43;;;;;;;;;;5059536;28;20219;-73
2022/06/25 04:23:18;;;;;;;2.30;2.20;;;;;;;;;;5057438;28;20530;-72
2022/06/25 04:26:06;;;;;;;1.83;1.83;;;;;;;;;;5056625;28;20234;-72
2022/06/25 04:29:08;;;;;;;1.93;1.83;;;;;;;;;;5054953;28;20621;-72
2022/06/25 04:31:55;;;;;;;2.13;2.03;;;;;;;;;;5053347;28;20208;-72
2022/06/25 04:34:42;;;;;;;2.20;2.10;;;;;;;;;;5062492;28;20693;-72
2022/06/25 04:37:29;;;;;;;2.10;2.00;;;;;;;;;;5057200;28;20212;-72
2022/06/25 04:40:17;;;;;;;2.10;2.00;;;;;;;;;;5063498;28;20293;-72
2022/06/25 04:43:04;;;;;;;2.00;1.80;;;;;;;;;;5062552;28;20574;-72
2022/06/25 04:45:52;;;;;;;2.10;2.00;;;;;;;;;;5060711;28;20332;-72
2022/06/25 04:48:39;;;;;;;1.80;1.70;;;;;;;;;;5065978;28;20286;-72
2022/06/25 04:51:27;;;;;;;2.10;2.00;;;;;;;;;;5056657;28;20297;-72
2022/06/25 04:54:15;;;;;;;1.93;1.83;;;;;;;;;;5064123;28;20208;-72
2022/06/25 04:57:01;;;;;;;2.10;2.00;;;;;;;;;;5055297;28;20694;-72
2022/06/25 04:59:48;;;;;;;1.87;1.87;;;;;;;;;;5059334;28;20304;-72
2022/06/25 05:02:37;;;;;;;2.20;2.10;;;;;;;;;;5066339;28;20227;-72
2022/06/25 05:05:24;;;;;;;1.93;1.83;;;;;;;;;;5061541;28;20635;-72
2022/06/25 05:08:11;;;;;;;2.20;2.00;;;;;;;;;;5065939;28;20383;-72
2022/06/25 05:10:58;;;;;;;2.10;2.00;;;;;;;;;;5064558;28;20213;-72
2022/06/25 05:13:45;;;;;;;2.00;1.97;;;;;;;;;;5062802;28;20789;-72
2022/06/25 05:16:32;;;;;;;1.80;1.80;;;;;;;;;;5062634;28;20201;-72
2022/06/25 05:19:21;;;;;;;1.95;1.95;;;;;;;;;;5062100;28;20213;-72
2022/06/25 05:22:08;;;;;;;1.70;1.70;;;;;;;;;;5061589;28;20276;-72
2022/06/25 05:24:55;;;;;;;2.20;2.10;;;;;;;;;;5060221;28;20237;-72
2022/06/25 05:27:44;;;;;;;1.88;1.80;;;;;;;;;;5056697;28;20226;-72
2022/06/25 05:30:31;;;;;;;2.13;2.03;;;;;;;;;;5065460;28;20207;-72
2022/06/25 05:33:18;;;;;;;1.90;1.80;;;;;;;;;;5067168;28;20204;-72
2022/06/25 05:36:08;;;;;;;2.40;2.30;;;;;;;;;;5058636;28;20688;-72
2022/06/25 05:38:55;;;;;;;1.92;1.90;;;;;;;;;;5060321;28;20227;-72
2022/06/25 05:41:42;;;;;;;1.80;1.80;;;;;;;;;;5060563;28;20271;-72
2022/06/25 05:44:29;;;;;;;1.60;1.60;;;;;;;;;;5060667;28;20249;-72
2022/06/25 05:47:17;;;;;;;1.70;1.70;;;;;;;;;;5061781;28;20320;-72
2022/06/25 05:50:06;;;;;;;1.88;1.88;;;;;;;;;;5056856;28;20222;-73
2022/06/25 05:52:56;;;;;;;1.85;1.85;;;;;;;;;;5061553;28;20211;-72
2022/06/25 05:55:43;;;;;;;1.85;1.83;;;;;;;;;;5057671;28;20249;-72
2022/06/25 05:58:30;;;;;;;2.17;1.98;;;;;;;;;;5061088;28;20296;-72
2022/06/25 06:01:17;;;;;;;2.10;2.03;;;;;;;;;;5056844;28;20257;-72
2022/06/25 06:04:05;;;;;;;1.70;1.70;;;;;;;;;;5061002;28;20207;-73
2022/06/25 06:06:52;;;;;;;1.80;1.80;;;;;;;;;;5063469;28;20226;-72
2022/06/25 06:09:41;;;;;;;1.67;1.67;;;;;;;;;;5059861;28;20210;-72
2022/06/25 06:12:28;;;;;;;1.67;1.67;;;;;;;;;;5059552;28;20228;-72
2022/06/25 06:15:15;;;;;;;1.63;1.55;;;;;;;;;;5056151;28;20219;-73
2022/06/25 06:18:02;;;;;;;1.90;1.80;;;;;;;;;;5059944;28;20225;-73
2022/06/25 06:20:49;;;;;;;1.73;1.73;;;;;;;;;;5066149;28;20309;-72
2022/06/25 06:23:36;;;;;;;2.20;2.10;;;;;;;;;;5056827;28;20380;-73
2022/06/25 06:26:24;;;;;;;2.13;2.03;;;;;;;;;;5055402;28;20228;-72
2022/06/25 06:29:11;;;;;;;1.40;1.40;;;;;;;;;;5061708;28;20332;-72
2022/06/25 06:31:58;;;;;;;1.60;1.60;;;;;;;;;;5059919;28;20211;-73
2022/06/25 06:34:45;;;;;;;1.45;1.45;;;;;;;;;;5060729;28;20222;-75
2022/06/25 06:37:32;;;;;;;1.65;1.55;;;;;;;;;;5061249;28;20203;-74
2022/06/25 06:40:19;;;;;;;2.00;1.90;;;;;;;;;;5060954;28;20207;-75
2022/06/25 06:43:08;;;;;;;1.85;1.85;;;;;;;;;;5059913;28;20204;-74
2022/06/25 06:45:55;;;;;;;2.08;1.98;;;;;;;;;;5065191;28;20361;-74
2022/06/25 06:48:42;;;;;;;1.83;1.83;;;;;;;;;;5056747;28;20200;-74
2022/06/25 06:51:29;;;;;;;1.63;1.52;;;;;;;;;;5057691;28;20203;-74
2022/06/25 06:54:16;;;;;;;1.83;1.73;;;;;;;;;;5058127;28;20223;-74
2022/06/25 06:57:04;;;;;;;1.75;1.75;;;;;;;;;;5058578;28;20235;-74
2022/06/25 06:59:52;;;;;;;1.98;1.67;;;;;;;;;;5057336;28;20207;-75
2022/06/25 07:02:39;;;;;;;1.58;1.58;;;;;;;;;;5058890;28;20219;-74
2022/06/25 07:05:27;;;;;;;1.45;1.45;;;;;;;;;;5059530;28;20235;-75
2022/06/25 07:08:14;;;;;;;2.05;1.95;;;;;;;;;;5059462;28;20331;-73
2022/06/25 07:11:01;;;;;;;1.70;1.70;;;;;;;;;;5058918;28;20276;-74
2022/06/25 07:13:48;;;;;;;1.42;1.42;;;;;;;;;;5055579;28;20608;-75
2022/06/25 07:16:37;;;;;;;1.85;1.75;;;;;;;;;;5058781;28;20198;-75
2022/06/25 07:19:24;;;;;;;1.80;1.80;;;;;;;;;;5056323;28;20204;-75
2022/06/25 07:22:11;;;;;;;1.40;1.40;;;;;;;;;;5062350;28;20352;-73
2022/06/25 07:24:58;;;;;;;1.60;1.60;;;;;;;;;;5058839;28;20195;-73
2022/06/25 07:27:46;;;;;;;1.70;1.70;;;;;;;;;;5051153;28;20206;-73
2022/06/25 07:30:33;;;;;;;1.50;1.50;;;;;;;;;;5060347;28;20211;-73
2022/06/25 07:33:21;;;;;;;1.55;1.55;;;;;;;;;;5062243;28;20199;-73
2022/06/25 07:36:08;;;;;;;1.48;1.48;;;;;;;;;;5055188;28;20606;-73
2022/06/25 07:38:55;;;;;;;1.48;1.48;;;;;;;;;;5057928;28;20347;-73
2022/06/25 07:41:42;;;;;;;1.33;1.33;;;;;;;;;;5056666;28;20697;-72
2022/06/25 07:44:29;;;;;;;1.35;1.35;;;;;;;;;;5060658;28;20255;-73
2022/06/25 07:47:16;;;;;;;1.33;1.33;;;;;;;;;;5057706;28;20230;-73
2022/06/25 07:53:21;;;;;;;1.35;1.35;;;;;;;;;;5030864;28;20290;-73
2022/06/25 07:56:07;;;;;;;1.38;1.38;;;;;;;;;;5054759;28;20203;-73
2022/06/25 07:58:54;;;;;;;1.25;1.25;;;;;;;;;;5054236;28;20667;-75
2022/06/25 08:01:42;;;;;;;1.40;1.40;;;;;;;;;;5052490;28;20199;-75
2022/06/25 08:04:29;;;;;;;1.30;1.30;;;;;;;;;;5058744;28;20616;-74
2022/06/25 08:07:17;;;;;;;1.30;1.30;;;;;;;;;;5061212;28;20231;-73
2022/06/25 08:10:05;;;;;;;1.50;1.50;;;;;;;;;;5060789;28;20214;-75
2022/06/25 08:12:53;;;;;;;1.23;1.23;;;;;;;;;;5067992;28;20257;-74
2022/06/25 08:15:40;;;;;;;1.50;1.50;;;;;;;;;;5061732;28;20200;-72
2022/06/25 08:18:27;;;;;;;1.35;1.35;;;;;;;;;;5060826;28;20294;-75
2022/06/25 08:21:14;;;;;;;1.48;1.48;;;;;;;;;;5066487;28;20207;-74
2022/06/25 08:24:03;;;;;;;1.30;1.30;;;;;;;;;;5063541;28;20196;-74
2022/06/25 08:26:50;;;;;;;1.40;1.40;;;;;;;;;;5066030;28;20687;-75
2022/06/25 08:29:37;;;;;;;1.48;1.48;;;;;;;;;;5060943;28;20215;-74
2022/06/25 08:32:24;;;;;;;1.65;1.63;;;;;;;;;;5054963;28;20250;-74
2022/06/25 08:35:12;;;;;;;1.55;1.55;;;;;;;;;;5059579;28;20210;-74
2022/06/25 08:37:59;;;;;;;1.42;1.42;;;;;;;;;;5064929;28;20671;-74
2022/06/25 08:40:47;;;;;;;1.27;1.27;;;;;;;;;;5066619;28;20578;-75
2022/06/25 08:43:36;;;;;;;1.40;1.40;;;;;;;;;;5063689;28;20207;-74
2022/06/25 08:46:23;;;;;;;1.30;1.30;;;;;;;;;;5059267;28;20220;-74
2022/06/25 08:49:12;;;;;;;1.50;1.50;;;;;;;;;;5059515;28;20215;-75
2022/06/25 08:52:01;;;;;;;1.60;1.60;;;;;;;;;;5056764;28;20707;-74
2022/06/25 08:54:49;;;;;;;1.50;1.50;;;;;;;;;;5062315;28;20700;-74
2022/06/25 08:57:39;;;;;;;1.30;1.30;;;;;;;;;;5063582;28;20289;-74
2022/06/25 09:00:26;;;;;;;1.40;1.40;;;;;;;;;;5056591;28;20273;-74
2022/06/25 09:03:13;;;;;;;1.33;1.33;;;;;;;;;;5060893;28;20235;-74
2022/06/25 09:06:13;;;;;;;1.50;1.50;;;;;;;;;;5061119;28;20236;-73
2022/06/25 09:09:12;;;;;;;1.33;1.33;;;;;;;;;;5041461;28;20835;-73
2022/06/25 09:12:04;;;;;;;1.35;1.35;;;;;;;;;;5044054;28;20699;-73
2022/06/25 09:14:53;;;;;;;1.30;1.30;;;;;;;;;;5045805;28;20227;-72
2022/06/25 09:17:48;;;;;;;1.40;1.40;;;;;;;;;;5041522;28;20671;-74
2022/06/25 09:20:36;;;;;;;1.48;1.48;;;;;;;;;;5042271;28;20211;-73
2022/06/25 09:23:23;;;;;;;1.63;1.55;;;;;;;;;;5043543;28;20699;-74
2022/06/25 09:26:12;;;;;;;1.40;1.33;;;;;;;;;;5041439;28;20238;-74
2022/06/25 09:29:01;;;;;;;1.42;1.42;;;;;;;;;;5040324;28;20212;-73
2022/06/25 09:31:51;;;;;;;1.70;1.60;;;;;;;;;;5040165;28;20219;-74
2022/06/25 09:34:39;;;;;;;1.35;1.35;;;;;;;;;;5038233;28;20651;-74
2022/06/25 09:37:28;;;;;;;1.52;1.52;;;;;;;;;;5037292;28;20284;-74
2022/06/25 09:40:16;;;;;;;1.35;1.35;;;;;;;;;;5037159;28;20655;-73
2022/06/25 09:43:14;;;;;;;1.65;1.58;;;;;;;;;;5039586;28;20211;-73
2022/06/25 09:46:04;;;;;;;1.50;1.50;;;;;;;;;;5037960;28;20294;-74
2022/06/25 09:48:52;;;;;;;1.55;1.45;;;;;;;;;;5039758;28;20208;-74
2022/06/25 09:51:39;;;;;;;1.20;1.20;;;;;;;;;;5045032;28;20204;-73
2022/06/25 09:54:27;;;;;;;1.40;1.40;;;;;;;;;;5038695;28;20250;-73
2022/06/25 09:57:14;;;;;;;1.30;1.30;;;;;;;;;;5032567;28;20201;-73
2022/06/25 10:00:01;;;;;;;1.40;1.40;;;;;;;;;;5036757;28;20784;-73
2022/06/25 10:02:50;;;;;;;1.42;1.42;;;;;;;;;;5040967;28;20700;-73
2022/06/25 10:05:40;;;;;;;1.30;1.30;;;;;;;;;;5041116;28;20211;-73
2022/06/25 10:08:29;;;;;;;2.13;1.65;;;;;;;;;;5054538;28;20822;-74
2022/06/25 10:11:18;;;;;;;1.48;1.48;;;;;;;;;;5066962;28;20215;-73
2022/06/25 10:14:06;;;;;;;1.65;1.58;;;;;;;;;;5063190;28;20239;-74
2022/06/25 10:16:54;;;;;;;1.52;1.52;;;;;;;;;;5058754;28;20257;-73
2022/06/25 10:19:41;;;;;;;1.80;1.80;;;;;;;;;;5060425;28;20238;-73
2022/06/25 10:22:30;;;;;;;2.03;1.92;;;;;;;;;;5058483;28;20199;-74
2022/06/25 10:25:21;;;;;;;1.50;1.50;;;;;;;;;;5054045;28;20335;-74
2022/06/25 10:28:10;;;;;;;1.38;1.38;;;;;;;;;;5060507;28;20739;-74
2022/06/25 10:30:58;;;;;;;1.50;1.50;;;;;;;;;;5051906;28;20728;-74
2022/06/25 10:33:57;;;;;;;1.20;1.20;;;;;;;;;;5062544;28;20329;-73
2022/06/25 10:36:46;;;;;;;1.60;1.60;;;;;;;;;;5053051;28;20208;-73
2022/06/25 10:39:37;;;;;;;1.40;1.40;;;;;;;;;;5058267;28;20203;-73
2022/06/25 10:45:52;;;;;;;1.70;1.70;;;;;;;;;;5056117;28;20207;-73
2022/06/25 10:48:50;;;;;;;1.30;1.30;;;;;;;;;;5063038;28;20270;-74
2022/06/25 10:51:45;;;;;;;1.45;1.45;;;;;;;;;;5053411;28;20218;-73
2022/06/25 10:54:39;;;;;;;1.48;1.48;;;;;;;;;;5059776;28;20668;-73
2022/06/25 10:57:39;;;;;;;1.65;1.65;;;;;;;;;;5058240;28;20195;-73
2022/06/25 11:00:26;;;;;;;1.65;1.55;;;;;;;;;;5058599;28;20242;-73
2022/06/25 11:03:14;;;;;;;1.42;1.40;;;;;;;;;;5060640;28;20223;-73
2022/06/25 11:06:18;;;;;;;1.80;1.70;;;;;;;;;;5057488;28;20234;-73
2022/06/25 11:09:11;;;;;;;1.58;1.55;;;;;;;;;;5059146;28;20699;-73
2022/06/25 11:12:00;;;;;;;1.60;1.60;;;;;;;;;;5057123;28;20285;-73
2022/06/25 11:14:50;;;;;;;1.33;1.33;;;;;;;;;;5062289;28;20206;-73
2022/06/25 11:17:37;;;;;;;1.80;1.70;;;;;;;;;;5058291;28;20232;-73
2022/06/25 11:20:24;;;;;;;1.60;1.50;;;;;;;;;;5041098;28;20201;-73
2022/06/25 11:23:12;;;;;;;1.60;1.60;;;;;;;;;;5031806;28;20259;-74
2022/06/25 11:29:05;;;;;;;1.30;1.30;;;;;;;;;;5053519;28;21131;-73
2022/06/25 11:31:54;;;;;;;1.50;1.50;;;;;;;;;;5057352;28;20203;-73
2022/06/25 11:34:42;;;;;;;1.52;1.52;;;;;;;;;;5059628;28;20208;-73
2022/06/25 11:37:31;;;;;;;1.67;1.67;;;;;;;;;;5054197;28;20200;-73
2022/06/25 11:40:18;;;;;;;1.63;1.60;;;;;;;;;;5056329;28;20204;-73
2022/06/25 11:43:09;;;;;;;1.40;1.40;;;;;;;;;;5053339;28;20203;-73
2022/06/25 11:45:59;;;;;;;1.70;1.70;;;;;;;;;;5064157;28;20238;-74
2022/06/25 11:48:48;;;;;;;1.60;1.50;;;;;;;;;;5059620;28;20666;-73
2022/06/25 11:51:35;;;;;;;1.45;1.45;;;;;;;;;;5062357;28;20204;-73
2022/06/25 11:54:24;;;;;;;1.48;1.48;;;;;;;;;;5060008;28;20206;-73
2022/06/25 11:57:17;;;;;;;1.55;1.50;;;;;;;;;;5060535;28;20204;-74
2022/06/25 12:00:05;;;;;;;1.80;1.70;;;;;;;;;;5063295;28;20326;-73
2022/06/25 12:03:03;;;;;;;1.30;1.30;;;;;;;;;;5059988;28;20235;-73
2022/06/25 12:05:50;;;;;;;1.73;1.73;;;;;;;;;;5065261;28;20215;-73
2022/06/25 12:08:38;;;;;;;1.67;1.52;;;;;;;;;;5063126;28;20326;-73
2022/06/25 12:11:29;;;;;;;1.92;1.83;;;;;;;;;;5061168;28;20218;-73
2022/06/25 12:14:16;;;;;;;1.73;1.67;;;;;;;;;;5055623;28;20304;-74
2022/06/25 12:17:05;;;;;;;1.80;1.70;;;;;;;;;;5060877;28;20199;-73
2022/06/25 12:19:54;;;;;;;1.70;1.60;;;;;;;;;;5063980;28;20300;-73
2022/06/25 12:22:43;;;;;;;1.60;1.60;;;;;;;;;;5059259;28;20211;-73
2022/06/25 12:25:33;;;;;;;1.40;1.40;;;;;;;;;;5058292;28;20680;-73
2022/06/25 12:28:34;;;;;;;1.70;1.60;;;;;;;;;;5059638;28;20313;-74
2022/06/25 12:31:22;;;;;;;1.38;1.38;;;;;;;;;;5060954;28;20282;-73
2022/06/25 12:34:10;;;;;;;1.40;1.40;;;;;;;;;;5068345;28;20200;-73
2022/06/25 12:36:59;;;;;;;1.63;1.60;;;;;;;;;;5063776;28;20286;-73
2022/06/25 12:39:59;;;;;;;1.98;1.88;;;;;;;;;;5057374;28;20226;-73
2022/06/25 12:42:54;;;;;;;1.67;1.67;;;;;;;;;;5059297;28;20211;-73
2022/06/25 12:45:44;;;;;;;1.73;1.70;;;;;;;;;;5061411;28;20745;-73
2022/06/25 12:48:31;;;;;;;1.80;1.70;;;;;;;;;;5063541;28;20250;-73
2022/06/25 12:51:18;;;;;;;1.73;1.70;;;;;;;;;;5065535;28;20214;-73
2022/06/25 12:54:06;;;;;;;1.63;1.63;;;;;;;;;;5058737;28;20281;-74
2022/06/25 12:56:54;;;;;;;1.80;1.70;;;;;;;;;;5055466;28;20273;-73
2022/06/25 12:59:45;;;;;;;1.48;1.48;;;;;;;;;;5062673;28;20203;-73
2022/06/25 13:02:33;;;;;;;1.48;1.48;;;;;;;;;;5058845;28;20227;-73
2022/06/25 13:05:21;;;;;;;1.73;1.73;;;;;;;;;;5061681;28;20200;-73
2022/06/25 13:08:08;;;;;;;1.50;1.50;;;;;;;;;;5019592;28;1214253;-74
2022/06/25 13:10:57;;;;;;;1.75;1.67;;;;;;;;;;5061690;28;20297;-73
2022/06/25 13:13:44;;;;;;;1.40;1.40;;;;;;;;;;5068042;28;20218;-73
2022/06/25 13:16:31;;;;;;;1.70;1.60;;;;;;;;;;5059140;28;20598;-73
2022/06/25 13:19:18;;;;;;;1.40;1.40;;;;;;;;;;5060574;28;20208;-73
2022/06/25 13:22:06;;;;;;;1.77;1.77;;;;;;;;;;5058693;28;20226;-73
2022/06/25 13:24:53;;;;;;;1.63;1.63;;;;;;;;;;5061477;28;20627;-73
2022/06/25 13:27:43;;;;;;;1.60;1.50;;;;;;;;;;5054057;28;20517;-73
2022/06/25 13:30:32;;;;;;;1.60;1.60;;;;;;;;;;5060413;28;20207;-73
2022/06/25 13:33:20;;;;;;;1.50;1.50;;;;;;;;;;5061458;28;20206;-73
2022/06/25 13:36:07;;;;;;;1.73;1.63;;;;;;;;;;5056537;28;20200;-73
2022/06/25 13:38:55;;;;;;;1.52;1.52;;;;;;;;;;5059913;28;20659;-73
2022/06/25 13:41:44;;;;;;;1.60;1.60;;;;;;;;;;5056504;28;20203;-73
2022/06/25 13:44:34;;;;;;;1.50;1.50;;;;;;;;;;5058410;28;20215;-73
2022/06/25 13:47:21;;;;;;;1.90;1.80;;;;;;;;;;5056032;28;20766;-73
2022/06/25 13:50:09;;;;;;;1.80;1.70;;;;;;;;;;5059236;28;20226;-74
2022/06/25 13:52:56;;;;;;;1.75;1.65;;;;;;;;;;5060967;28;20210;-73
2022/06/25 13:55:45;;;;;;;2.00;1.90;;;;;;;;;;5059881;28;20640;-73
2022/06/25 13:58:32;;;;;;;1.63;1.63;;;;;;;;;;5057267;28;20249;-73
2022/06/25 14:01:20;;;;;;;1.60;1.60;;;;;;;;;;5058562;28;20208;-73
2022/06/25 14:04:08;;;;;;;1.73;1.63;;;;;;;;;;5059658;28;20227;-73
2022/06/25 14:06:55;;;;;;;1.67;1.67;;;;;;;;;;5054502;28;20207;-73
2022/06/25 14:09:42;;;;;;;1.70;1.70;;;;;;;;;;5058648;28;20203;-73
2022/06/25 14:12:29;;;;;;;2.00;1.90;;;;;;;;;;5054744;28;20333;-74
2022/06/25 14:15:16;;;;;;;1.73;1.73;;;;;;;;;;5059919;28;20196;-73
2022/06/25 14:18:04;;;;;;;1.77;1.77;;;;;;;;;;5059395;28;20644;-73
2022/06/25 14:20:51;;;;;;;1.52;1.52;;;;;;;;;;5059559;28;20418;-73
2022/06/25 14:23:38;;;;;;;1.65;1.65;;;;;;;;;;5057137;28;20219;-73
2022/06/25 14:26:25;;;;;;;1.60;1.60;;;;;;;;;;5058146;28;20203;-73
2022/06/25 14:29:13;;;;;;;1.70;1.60;;;;;;;;;;5055810;28;20224;-73
2022/06/25 14:32:00;;;;;;;1.98;1.60;;;;;;;;;;5054136;28;20208;-73
2022/06/25 14:34:48;;;;;;;1.92;1.80;;;;;;;;;;5052414;28;20206;-73
2022/06/25 14:43:43;;;;;;;2.05;1.95;;;;;;;;;;5042386;28;20200;-73
2022/06/25 14:46:30;;;;;;;2.10;2.00;;;;;;;;;;5051046;28;20687;-73
2022/06/25 14:49:17;;;;;;;2.00;1.90;;;;;;;;;;5058387;28;20223;-73
2022/06/25 14:52:05;;;;;;;1.90;1.80;;;;;;;;;;5061311;28;20676;-73
2022/06/25 14:54:52;;;;;;;2.00;1.90;;;;;;;;;;5057363;28;20210;-73
2022/06/25 14:57:40;;;;;;;2.00;1.90;;;;;;;;;;5059985;28;20702;-73
2022/06/25 15:00:27;;;;;;;1.85;1.75;;;;;;;;;;5056086;28;20218;-74
2022/06/25 15:03:14;;;;;;;1.98;1.88;;;;;;;;;;5062782;28;20261;-73
2022/06/25 15:06:04;;;;;;;2.08;1.98;;;;;;;;;;5053980;28;20673;-73
2022/06/25 15:08:52;;;;;;;2.25;2.05;;;;;;;;;;5057783;28;20326;-73
2022/06/25 15:11:39;;;;;;;2.25;2.15;;;;;;;;;;5058850;28;20309;-73
2022/06/25 15:14:26;;;;;;;2.22;2.13;;;;;;;;;;5057768;28;20210;-73
2022/06/25 15:17:13;;;;;;;2.10;2.00;;;;;;;;;;5060965;28;20282;-73
2022/06/25 15:20:00;;;;;;;2.55;2.45;;;;;;;;;;5063449;28;20210;-73
2022/06/25 15:22:47;;;;;;;2.00;1.90;;;;;;;;;;5062820;28;20250;-70
2022/06/25 15:25:36;;;;;;;2.30;2.10;;;;;;;;;;5057386;28;20207;-70
2022/06/25 15:28:23;;;;;;;2.10;1.90;;;;;;;;;;5059959;28;20313;-70
2022/06/25 15:31:10;;;;;;;2.15;2.05;;;;;;;;;;5058583;28;20274;-70
2022/06/25 15:33:56;;;;;;;2.30;2.20;;;;;;;;;;5061096;28;20214;-70
2022/06/25 15:36:43;;;;;;;2.10;2.00;;;;;;;;;;5057097;28;20216;-70
2022/06/25 15:39:31;;;;;;;4.60;2.33;;;;;;;;;;5062750;28;20210;-70
2022/06/25 15:42:20;;;;;;;2.10;1.98;;;;;;;;;;5058698;28;20208;-70
2022/06/25 15:45:08;;;;;;;2.30;2.20;;;;;;;;;;5052160;28;20720;-70
2022/06/25 15:47:55;;;;;;;1.85;1.75;;;;;;;;;;5056392;28;20305;-70
2022/06/25 15:50:42;;;;;;;2.08;1.98;;;;;;;;;;5053954;28;20282;-70
2022/06/25 15:53:30;;;;;;;2.25;2.15;;;;;;;;;;5060962;28;20683;-70
2022/06/25 15:56:17;;;;;;;2.00;1.90;;;;;;;;;;5061368;28;20749;-70
2022/06/25 16:02:11;;;;;;;2.33;2.22;;;;;;;;;;5058273;28;20218;-70
2022/06/25 16:04:58;;;;;;;2.08;1.98;;;;;;;;;;5054377;28;20207;-70
2022/06/25 16:07:45;;;;;;;2.20;2.10;;;;;;;;;;5059044;28;20281;-70
2022/06/25 16:10:32;;;;;;;2.75;2.10;;;;;;;;;;5061480;28;20637;-70
2022/06/25 16:13:19;;;;;;;2.20;2.10;;;;;;;;;;5058316;28;20198;-70
2022/06/25 16:16:08;;;;;;;2.22;2.13;;;;;;;;;;5059659;28;20419;-70
2022/06/25 16:18:55;;;;;;;1.90;1.80;;;;;;;;;;5056449;28;20199;-70
2022/06/25 16:21:43;;;;;;;2.00;1.90;;;;;;;;;;5066989;28;20522;-70
2022/06/25 16:24:30;;;;;;;1.75;1.75;;;;;;;;;;5062135;28;20208;-70
2022/06/25 16:27:18;;;;;;;1.77;1.77;;;;;;;;;;5062182;28;20493;-70
2022/06/25 16:30:06;;;;;;;2.00;1.90;;;;;;;;;;5066808;28;20805;-70
2022/06/25 16:32:54;;;;;;;2.40;2.30;;;;;;;;;;5066968;28;20238;-71
2022/06/25 16:35:41;;;;;;;2.17;1.98;;;;;;;;;;5059108;28;20203;-70
2022/06/25 16:38:28;;;;;;;2.10;2.00;;;;;;;;;;5067180;28;20211;-70
2022/06/25 16:41:15;;;;;;;2.00;1.90;;;;;;;;;;5061834;28;20617;-70
2022/06/25 16:44:04;;;;;;;1.92;1.83;;;;;;;;;;5059635;28;20213;-70
2022/06/25 16:46:51;;;;;;;1.95;1.85;;;;;;;;;;5065412;28;20216;-70
2022/06/25 16:49:40;;;;;;;1.90;1.80;;;;;;;;;;5056112;28;20691;-70
2022/06/25 16:52:27;;;;;;;2.25;2.15;;;;;;;;;;5056281;28;20304;-70
2022/06/25 16:55:18;;;;;;;2.03;1.92;;;;;;;;;;5062501;28;20222;-70
2022/06/25 16:58:05;;;;;;;2.00;1.90;;;;;;;;;;5068665;28;20691;-70
2022/06/25 17:00:52;;;;;;;2.10;2.00;;;;;;;;;;5058090;28;20308;-70
2022/06/25 17:03:39;;;;;;;2.08;1.98;;;;;;;;;;5063140;28;20712;-70
2022/06/25 17:06:30;;;;;;;2.08;1.98;;;;;;;;;;5058055;28;20216;-70
2022/06/25 17:09:17;;;;;;;1.70;1.70;;;;;;;;;;5056042;28;20231;-70
2022/06/25 17:12:05;;;;;;;1.90;1.80;;;;;;;;;;5062583;28;20289;-70
2022/06/25 17:14:51;;;;;;;2.88;1.90;;;;;;;;;;5060685;28;20232;-70
2022/06/25 17:17:39;;;;;;;2.30;2.20;;;;;;;;;;5063649;28;20223;-70
2022/06/25 17:20:26;;;;;;;1.70;1.60;;;;;;;;;;5064480;28;20204;-70